Time;durP1;ratioP1;P1;durP2;ratioP2;P2;SDS_P1;SDS_P2;PMS_P1;PMS_P2;Temp;Humidity;BMP_temperature;BMP_pressure;BME280_temperature;BME280_humidity;BME280_pressure;Samples;Min_cycle;Max_cycle;Signal;HPM_P1;HPM_P2
2021/06/16 00:00:13;;;;;;;11.50;4.20;;;14.60;79.60;;;;;;5051383;28;20069;-51
2021/06/16 00:02:39;;;;;;;10.95;4.07;;;14.70;79.60;;;;;;5061360;28;20090;-55
2021/06/16 00:05:06;;;;;;;9.35;3.88;;;14.70;79.60;;;;;;5052605;28;20555;-53
2021/06/16 00:07:32;;;;;;;17.48;4.75;;;14.70;79.40;;;;;;5040528;28;20047;-54
2021/06/16 00:09:59;;;;;;;12.65;4.25;;;14.70;79.70;;;;;;5051326;28;20090;-53
2021/06/16 00:12:26;;;;;;;10.55;4.30;;;14.60;79.60;;;;;;5064484;28;20410;-55
2021/06/16 00:14:53;;;;;;;10.77;4.25;;;14.60;80.10;;;;;;5027543;28;20132;-54
2021/06/16 00:17:19;;;;;;;12.40;4.45;;;14.70;79.40;;;;;;5046979;28;20065;-54
2021/06/16 00:19:45;;;;;;;10.60;4.60;;;14.70;79.40;;;;;;5051262;28;20076;-55
2021/06/16 00:22:11;;;;;;;11.27;4.65;;;14.60;79.30;;;;;;5051075;28;20048;-54
2021/06/16 00:24:37;;;;;;;14.93;4.30;;;14.70;79.50;;;;;;5050734;28;20048;-54
2021/06/16 00:27:04;;;;;;;12.25;4.68;;;14.70;79.60;;;;;;5030532;28;20072;-54
2021/06/16 00:29:30;;;;;;;11.95;4.40;;;14.60;79.50;;;;;;5048775;28;20037;-53
2021/06/16 00:31:56;;;;;;;13.18;4.57;;;14.60;79.70;;;;;;5051229;28;20082;-55
2021/06/16 00:34:22;;;;;;;10.77;4.45;;;14.60;79.80;;;;;;5050630;28;20045;-54
2021/06/16 00:36:47;;;;;;;11.15;4.78;;;14.50;79.90;;;;;;5050799;28;20524;-53
2021/06/16 00:39:13;;;;;;;8.13;4.55;;;14.50;79.90;;;;;;5051372;28;20055;-54
2021/06/16 00:41:39;;;;;;;11.38;4.43;;;14.50;80.20;;;;;;5051100;28;20326;-55
2021/06/16 00:44:06;;;;;;;12.85;4.82;;;14.50;80.20;;;;;;5045357;28;20037;-52
2021/06/16 00:46:33;;;;;;;9.65;4.50;;;14.50;80.40;;;;;;5054874;28;20047;-55
2021/06/16 00:48:59;;;;;;;14.38;4.97;;;14.60;79.70;;;;;;5053955;28;20059;-55
2021/06/16 00:51:24;;;;;;;12.77;4.97;;;14.50;80.00;;;;;;5050691;28;20060;-54
2021/06/16 00:53:51;;;;;;;13.07;4.72;;;14.50;80.00;;;;;;5050990;28;20240;-54
2021/06/16 00:56:17;;;;;;;11.45;4.57;;;14.50;80.20;;;;;;5049892;28;20064;-54
2021/06/16 00:58:43;;;;;;;13.35;4.85;;;14.50;80.10;;;;;;5050873;28;20098;-55
2021/06/16 01:01:19;;;;;;;13.75;5.40;;;14.50;80.10;;;;;;5050843;28;20076;-54
2021/06/16 01:03:56;;;;;;;10.82;4.75;;;14.60;79.80;;;;;;5035679;28;20044;-54
2021/06/16 01:06:28;;;;;;;14.15;5.05;;;14.60;79.90;;;;;;5065137;28;20374;-54
2021/06/16 01:09:06;;;;;;;9.90;4.53;;;14.50;80.20;;;;;;5068307;28;20040;-53
2021/06/16 01:11:43;;;;;;;12.57;4.97;;;14.40;80.30;;;;;;5049878;28;20040;-55
2021/06/16 01:14:13;;;;;;;15.15;4.63;;;14.40;80.50;;;;;;5052223;28;20609;-54
2021/06/16 01:16:49;;;;;;;10.75;4.80;;;14.50;80.30;;;;;;5054865;28;20048;-53
2021/06/16 01:19:47;;;;;;;15.10;5.10;;;14.50;80.30;;;;;;5054873;28;20437;-51
2021/06/16 01:22:37;;;;;;;10.57;4.88;;;14.50;80.20;;;;;;5044708;28;20106;-52
2021/06/16 01:25:31;;;;;;;11.10;5.32;;;14.40;80.60;;;;;;5054266;28;20136;-54
2021/06/16 01:27:57;;;;;;;10.35;5.00;;;14.30;80.90;;;;;;5055381;28;20123;-55
2021/06/16 01:30:27;;;;;;;12.40;5.05;;;14.30;80.80;;;;;;5054984;28;20401;-52
2021/06/16 01:32:55;;;;;;;13.40;5.50;;;14.30;81.20;;;;;;5054013;28;20041;-54
2021/06/16 01:35:21;;;;;;;11.93;5.97;;;14.40;81.00;;;;;;5054656;28;20060;-54
2021/06/16 01:37:47;;;;;;;9.63;5.72;;;14.40;80.80;;;;;;5054621;28;20405;-53
2021/06/16 01:40:14;;;;;;;13.25;5.07;;;14.30;80.80;;;;;;5033578;28;20500;-52
2021/06/16 01:42:41;;;;;;;13.80;5.20;;;14.30;81.00;;;;;;5054765;28;20048;-54
2021/06/16 01:45:08;;;;;;;16.10;5.47;;;14.30;80.90;;;;;;5052860;28;20108;-54
2021/06/16 01:47:35;;;;;;;13.05;5.60;;;14.20;80.90;;;;;;5054390;28;20033;-51
2021/06/16 01:50:05;;;;;;;10.32;5.18;;;14.20;81.10;;;;;;5053613;28;20405;-54
2021/06/16 01:52:34;;;;;;;11.10;5.63;;;14.20;81.50;;;;;;5040013;28;20047;-55
2021/06/16 01:55:00;;;;;;;14.40;5.65;;;14.20;81.00;;;;;;5053987;28;20039;-53
2021/06/16 01:57:26;;;;;;;12.52;5.63;;;14.20;80.90;;;;;;5040664;28;20033;-55
2021/06/16 01:59:54;;;;;;;14.95;5.90;;;14.20;81.10;;;;;;5040056;28;20044;-53
2021/06/16 02:02:20;;;;;;;13.40;5.80;;;14.20;81.50;;;;;;5053580;28;20128;-54
2021/06/16 02:04:46;;;;;;;12.68;6.07;;;14.10;81.40;;;;;;5053623;28;20073;-54
2021/06/16 02:07:22;;;;;;;12.07;6.05;;;14.20;81.60;;;;;;5054441;28;20044;-53
2021/06/16 02:09:50;;;;;;;13.27;5.68;;;14.10;81.40;;;;;;5018964;28;20049;-54
2021/06/16 02:12:18;;;;;;;13.00;6.07;;;14.10;81.60;;;;;;5052057;28;20131;-54
2021/06/16 02:14:51;;;;;;;11.95;6.05;;;14.00;81.70;;;;;;5034446;28;20850;-53
2021/06/16 02:17:19;;;;;;;11.02;5.88;;;14.00;82.00;;;;;;5053710;28;20048;-54
2021/06/16 02:19:46;;;;;;;14.65;6.80;;;14.00;81.80;;;;;;5053498;28;20056;-51
2021/06/16 02:22:13;;;;;;;16.27;6.65;;;14.00;81.90;;;;;;5039795;28;20041;-52
2021/06/16 02:24:39;;;;;;;15.18;5.93;;;14.00;81.80;;;;;;5053048;28;20514;-53
2021/06/16 02:27:07;;;;;;;16.13;6.65;;;14.00;82.10;;;;;;5039084;28;20107;-55
2021/06/16 02:29:34;;;;;;;12.88;6.15;;;13.90;82.20;;;;;;5036364;28;20065;-53
2021/06/16 02:32:00;;;;;;;13.93;6.53;;;13.90;82.40;;;;;;5053436;28;20071;-54
2021/06/16 02:34:30;;;;;;;17.25;6.75;;;13.90;82.30;;;;;;5055802;28;20032;-53
2021/06/16 02:37:00;;;;;;;11.00;6.65;;;13.90;82.20;;;;;;5057042;28;20059;-49
2021/06/16 02:39:33;;;;;;;12.90;6.75;;;13.90;82.30;;;;;;5056328;28;20037;-52
2021/06/16 02:42:02;;;;;;;15.60;6.75;;;13.90;82.40;;;;;;5062983;28;20101;-51
2021/06/16 02:44:28;;;;;;;15.77;6.32;;;14.00;82.10;;;;;;5045459;28;20044;-54
2021/06/16 02:46:58;;;;;;;14.45;7.07;;;13.90;82.40;;;;;;5047732;28;20102;-53
2021/06/16 02:49:38;;;;;;;14.82;6.97;;;13.80;82.40;;;;;;5073473;28;20029;-54
2021/06/16 02:52:08;;;;;;;17.67;7.15;;;13.80;82.90;;;;;;5032370;28;20497;-53
2021/06/16 02:54:36;;;;;;;12.02;6.95;;;13.80;83.00;;;;;;5052052;28;20044;-51
2021/06/16 02:57:04;;;;;;;16.73;7.30;;;13.70;82.80;;;;;;5042011;28;20051;-55
2021/06/16 02:59:34;;;;;;;15.77;7.75;;;13.70;83.10;;;;;;5072929;28;20053;-53
2021/06/16 03:02:01;;;;;;;14.35;6.85;;;13.70;83.00;;;;;;5057940;28;20252;-51
2021/06/16 03:04:27;;;;;;;16.90;6.93;;;13.70;83.50;;;;;;5058569;28;20116;-53
2021/06/16 03:06:56;;;;;;;15.23;7.20;;;13.60;83.60;;;;;;5057877;28;20029;-53
2021/06/16 03:09:23;;;;;;;13.73;7.65;;;13.60;83.70;;;;;;5047778;28;20044;-52
2021/06/16 03:11:53;;;;;;;13.73;7.60;;;13.60;83.80;;;;;;5056732;28;20054;-49
2021/06/16 03:14:23;;;;;;;13.60;7.32;;;13.60;83.90;;;;;;5061425;28;20091;-50
2021/06/16 03:16:50;;;;;;;15.32;7.70;;;13.60;83.70;;;;;;5057882;28;20105;-49
2021/06/16 03:19:17;;;;;;;14.57;7.78;;;13.60;83.50;;;;;;5054263;28;20394;-48
2021/06/16 03:21:45;;;;;;;15.93;7.53;;;13.50;84.00;;;;;;5056586;28;20052;-51
2021/06/16 03:24:12;;;;;;;18.67;8.32;;;13.60;84.60;;;;;;5056750;28;20075;-55
2021/06/16 03:26:43;;;;;;;12.50;7.30;;;13.60;84.10;;;;;;5053444;28;20072;-53
2021/06/16 03:29:13;;;;;;;10.80;7.18;;;13.60;84.00;;;;;;5075607;28;20033;-54
2021/06/16 03:31:41;;;;;;;13.15;7.40;;;13.50;84.00;;;;;;5065098;28;20097;-51
2021/06/16 03:34:11;;;;;;;13.43;7.82;;;13.50;84.30;;;;;;5059381;28;20071;-52
2021/06/16 03:36:38;;;;;;;14.18;7.93;;;13.50;84.40;;;;;;5052735;28;20094;-49
2021/06/16 03:39:05;;;;;;;15.52;7.80;;;13.50;84.50;;;;;;5061384;28;20136;-53
2021/06/16 03:41:35;;;;;;;14.65;8.15;;;13.50;84.80;;;;;;5056631;28;20105;-49
2021/06/16 03:44:04;;;;;;;14.02;7.97;;;13.50;84.40;;;;;;5076549;28;20044;-52
2021/06/16 03:46:34;;;;;;;14.82;8.50;;;13.50;84.40;;;;;;5059857;28;20071;-52
2021/06/16 03:49:02;;;;;;;15.13;7.65;;;13.50;84.70;;;;;;5051112;28;20110;-51
2021/06/16 03:51:29;;;;;;;13.35;7.95;;;13.50;84.70;;;;;;5046096;28;20040;-51
2021/06/16 03:53:56;;;;;;;11.68;8.10;;;13.50;84.70;;;;;;5046537;28;20485;-53
2021/06/16 03:56:23;;;;;;;14.60;8.07;;;13.50;84.80;;;;;;5052973;28;20425;-51
2021/06/16 03:58:52;;;;;;;17.95;8.10;;;13.50;84.50;;;;;;5071943;28;20046;-51
2021/06/16 04:01:18;;;;;;;15.00;8.25;;;13.50;84.70;;;;;;5041898;28;20053;-51
2021/06/16 04:03:45;;;;;;;15.70;7.93;;;13.50;84.80;;;;;;5066982;28;20108;-52
2021/06/16 04:06:15;;;;;;;14.02;8.13;;;13.60;84.80;;;;;;5053829;28;20041;-52
2021/06/16 04:08:45;;;;;;;16.42;8.40;;;13.60;84.70;;;;;;5060093;28;20106;-53
2021/06/16 04:11:14;;;;;;;19.15;8.20;;;13.60;84.80;;;;;;5044107;28;20507;-53
2021/06/16 04:13:41;;;;;;;16.52;8.68;;;13.60;84.50;;;;;;5057558;28;20040;-54
2021/06/16 04:16:08;;;;;;;16.50;7.90;;;13.70;84.50;;;;;;5051427;28;20036;-54
2021/06/16 04:18:39;;;;;;;15.52;8.60;;;13.70;84.30;;;;;;5069548;28;20048;-52
2021/06/16 04:21:05;;;;;;;15.30;8.32;;;13.70;84.40;;;;;;5051374;28;20052;-50
2021/06/16 04:23:31;;;;;;;13.73;8.23;;;13.80;84.20;;;;;;5047151;28;20417;-51
2021/06/16 04:25:57;;;;;;;15.50;8.23;;;13.80;84.10;;;;;;5055448;28;20033;-51
2021/06/16 04:28:23;;;;;;;13.43;8.02;;;13.80;84.20;;;;;;5062558;28;20131;-52
2021/06/16 04:30:49;;;;;;;14.82;8.05;;;13.80;84.10;;;;;;5041441;28;20140;-51
2021/06/16 04:33:17;;;;;;;17.48;8.35;;;13.80;84.20;;;;;;5062577;28;20098;-53
2021/06/16 04:35:42;;;;;;;14.93;8.32;;;13.90;83.70;;;;;;5054124;28;20051;-51
2021/06/16 04:38:08;;;;;;;17.48;8.50;;;13.90;83.60;;;;;;5047529;28;20097;-51
2021/06/16 04:40:34;;;;;;;10.88;7.90;;;14.00;83.60;;;;;;5056756;28;20526;-51
2021/06/16 04:42:59;;;;;;;16.10;7.90;;;14.00;83.50;;;;;;5044724;28;20064;-51
2021/06/16 04:45:25;;;;;;;18.65;8.20;;;14.00;83.70;;;;;;5049231;28;20379;-51
2021/06/16 04:47:51;;;;;;;15.05;8.57;;;14.10;83.80;;;;;;5052284;28;20053;-54
2021/06/16 04:50:17;;;;;;;14.57;8.30;;;14.10;84.00;;;;;;5031517;28;20494;-54
2021/06/16 04:52:43;;;;;;;14.50;8.20;;;14.10;83.90;;;;;;5050118;28;20084;-51
2021/06/16 04:55:11;;;;;;;16.15;8.45;;;14.20;84.10;;;;;;5040471;28;20098;-51
2021/06/16 04:57:37;;;;;;;13.23;8.02;;;14.30;83.80;;;;;;5066208;28;20040;-50
2021/06/16 05:00:05;;;;;;;16.60;8.27;;;14.30;83.40;;;;;;5060521;28;20037;-51
2021/06/16 05:02:30;;;;;;;10.93;8.05;;;14.50;83.20;;;;;;5046621;28;20044;-53
2021/06/16 05:04:56;;;;;;;17.33;7.97;;;14.70;83.00;;;;;;5041722;28;20033;-53
2021/06/16 05:07:21;;;;;;;14.18;7.43;;;14.90;82.50;;;;;;5049486;28;20071;-53
2021/06/16 05:09:47;;;;;;;13.75;7.70;;;15.20;81.20;;;;;;5048102;28;20045;-51
2021/06/16 05:12:13;;;;;;;12.02;7.65;;;15.40;80.20;;;;;;5050072;28;20048;-52
2021/06/16 05:14:39;;;;;;;12.45;7.25;;;15.60;80.10;;;;;;5047530;28;20049;-54
2021/06/16 05:17:05;;;;;;;15.48;7.50;;;15.80;78.70;;;;;;5049463;28;20065;-55
2021/06/16 05:19:30;;;;;;;16.13;7.57;;;16.10;78.90;;;;;;5057411;28;20537;-52
2021/06/16 05:22:03;;;;;;;15.77;7.28;;;16.30;77.90;;;;;;5049501;28;20035;-54
2021/06/16 05:24:29;;;;;;;13.27;7.25;;;16.50;77.00;;;;;;5040765;28;20045;-51
2021/06/16 05:26:55;;;;;;;12.60;7.00;;;16.70;76.70;;;;;;5049877;28;20032;-51
2021/06/16 05:29:22;;;;;;;10.85;6.78;;;16.90;76.10;;;;;;5019540;28;20079;-53
2021/06/16 05:31:48;;;;;;;16.33;7.25;;;17.10;75.70;;;;;;5067709;28;20040;-51
2021/06/16 05:34:15;;;;;;;13.40;7.22;;;17.30;74.80;;;;;;5060375;28;20040;-51
2021/06/16 05:36:41;;;;;;;14.82;7.15;;;17.40;73.80;;;;;;5072312;28;20048;-52
2021/06/16 05:39:07;;;;;;;11.88;6.32;;;17.60;72.40;;;;;;5060762;28;20040;-51
2021/06/16 05:41:33;;;;;;;13.25;7.00;;;17.60;72.90;;;;;;5055949;28;20507;-51
2021/06/16 05:43:59;;;;;;;16.33;7.45;;;17.80;72.20;;;;;;5064208;28;20045;-49
2021/06/16 05:46:25;;;;;;;12.25;7.32;;;17.90;72.50;;;;;;5070552;28;20047;-52
2021/06/16 05:48:51;;;;;;;15.93;6.95;;;18.00;72.20;;;;;;5062765;28;20044;-52
2021/06/16 05:51:17;;;;;;;15.05;6.75;;;18.10;72.60;;;;;;5057358;28;20079;-51
2021/06/16 05:53:43;;;;;;;12.25;6.32;;;18.20;71.40;;;;;;5067949;28;20041;-54
2021/06/16 05:56:09;;;;;;;13.38;6.65;;;18.50;70.60;;;;;;5052248;28;20045;-50
2021/06/16 05:58:35;;;;;;;16.33;6.47;;;18.80;69.00;;;;;;5050204;28;20040;-50
2021/06/16 06:01:01;;;;;;;12.40;6.10;;;18.90;68.50;;;;;;5066477;28;20037;-50
2021/06/16 06:03:27;;;;;;;11.98;6.55;;;18.80;68.60;;;;;;5067492;28;20048;-51
2021/06/16 06:05:53;;;;;;;13.95;6.65;;;18.60;69.60;;;;;;5068595;28;20045;-50
2021/06/16 06:08:19;;;;;;;10.73;6.25;;;18.40;71.10;;;;;;5045087;28;20095;-52
2021/06/16 06:10:45;;;;;;;17.67;6.60;;;18.40;71.30;;;;;;5068023;28;20044;-50
2021/06/16 06:13:10;;;;;;;13.65;6.78;;;18.30;71.10;;;;;;5060844;28;20705;-50
2021/06/16 06:15:36;;;;;;;11.98;6.47;;;18.20;71.90;;;;;;5057533;28;20033;-52
2021/06/16 06:18:02;;;;;;;11.30;6.47;;;18.20;72.80;;;;;;5064606;28;20619;-51
2021/06/16 06:20:28;;;;;;;11.75;6.55;;;18.20;73.00;;;;;;5064167;28;20484;-53
2021/06/16 06:22:56;;;;;;;13.48;7.57;;;18.20;72.80;;;;;;5064917;28;20101;-50
2021/06/16 06:25:22;;;;;;;13.40;7.25;;;18.20;72.40;;;;;;5057628;28;20147;-52
2021/06/16 06:27:48;;;;;;;13.68;6.63;;;18.20;72.30;;;;;;5063204;28;20064;-53
2021/06/16 06:30:14;;;;;;;13.55;6.88;;;18.20;72.40;;;;;;5065614;28;20635;-50
2021/06/16 06:32:40;;;;;;;14.23;7.38;;;18.10;73.50;;;;;;5065716;28;20043;-54
2021/06/16 06:35:07;;;;;;;11.38;7.10;;;18.10;73.60;;;;;;5060741;28;20078;-55
2021/06/16 06:37:32;;;;;;;12.52;7.00;;;18.20;73.40;;;;;;5052811;28;20069;-49
2021/06/16 06:39:58;;;;;;;14.32;7.18;;;18.20;73.70;;;;;;5063162;28;20398;-53
2021/06/16 06:42:24;;;;;;;15.15;7.40;;;18.20;73.80;;;;;;5054143;28;20456;-53
2021/06/16 06:44:49;;;;;;;16.27;7.35;;;18.20;73.90;;;;;;5054523;28;20037;-49
2021/06/16 06:47:19;;;;;;;14.70;7.28;;;18.30;73.80;;;;;;5056545;28;20291;-50
2021/06/16 06:49:44;;;;;;;15.02;7.70;;;18.30;74.10;;;;;;5053223;28;20037;-52
2021/06/16 06:52:11;;;;;;;13.90;7.60;;;18.40;73.60;;;;;;5055542;28;20071;-50
2021/06/16 06:54:37;;;;;;;17.83;7.80;;;18.40;73.60;;;;;;5054464;28;20044;-52
2021/06/16 06:57:03;;;;;;;12.25;7.13;;;18.50;73.80;;;;;;5051527;28;20067;-52
2021/06/16 06:59:29;;;;;;;15.05;7.63;;;18.60;73.10;;;;;;5064106;28;20040;-49
2021/06/16 07:01:55;;;;;;;16.75;7.93;;;18.60;72.90;;;;;;5064542;28;20041;-52
2021/06/16 07:04:23;;;;;;;15.32;7.60;;;18.70;72.40;;;;;;5051423;28;20094;-53
2021/06/16 07:06:51;;;;;;;14.10;7.13;;;18.80;72.50;;;;;;5059703;28;20452;-54
2021/06/16 07:09:17;;;;;;;14.40;7.32;;;18.90;72.50;;;;;;5068715;28;20060;-53
2021/06/16 07:11:42;;;;;;;13.15;7.65;;;19.10;72.80;;;;;;5055128;28;20328;-54
2021/06/16 07:14:08;;;;;;;18.25;7.80;;;19.20;72.30;;;;;;5044076;28;20050;-54
2021/06/16 07:16:34;;;;;;;16.55;7.47;;;19.40;72.20;;;;;;5037934;28;20045;-55
2021/06/16 07:19:00;;;;;;;15.43;7.22;;;19.60;71.10;;;;;;5066835;28;20047;-54
2021/06/16 07:21:26;;;;;;;12.45;7.32;;;19.80;70.80;;;;;;5046473;28;20209;-54
2021/06/16 07:23:52;;;;;;;14.70;7.63;;;19.90;70.30;;;;;;5048130;28;20074;-54
2021/06/16 07:26:18;;;;;;;13.63;7.95;;;20.00;68.60;;;;;;5068761;28;20044;-55
2021/06/16 07:28:44;;;;;;;16.92;7.65;;;20.10;69.00;;;;;;5066325;28;20484;-55
2021/06/16 07:31:29;;;;;;;11.13;7.20;;;20.10;69.70;;;;;;5064927;28;20055;-56
2021/06/16 07:33:56;;;;;;;14.30;7.53;;;20.30;69.70;;;;;;5041265;28;20482;-56
2021/06/16 07:36:22;;;;;;;12.38;7.00;;;20.50;68.30;;;;;;5061754;28;20094;-52
2021/06/16 07:38:48;;;;;;;15.32;7.68;;;20.60;68.70;;;;;;5044015;28;20052;-53
2021/06/16 07:41:13;;;;;;;15.27;7.22;;;20.70;68.00;;;;;;5052715;28;20037;-54
2021/06/16 07:43:40;;;;;;;14.25;7.18;;;20.80;68.00;;;;;;5054195;28;20048;-53
2021/06/16 07:46:06;;;;;;;13.63;7.03;;;20.90;67.90;;;;;;5047189;28;20499;-55
2021/06/16 07:48:32;;;;;;;11.00;6.97;;;20.90;67.50;;;;;;5042576;28;20133;-54
2021/06/16 07:50:58;;;;;;;11.25;6.55;;;21.10;66.00;;;;;;5051005;28;20408;-52
2021/06/16 07:53:24;;;;;;;11.93;7.25;;;21.10;67.20;;;;;;5040315;28;20061;-50
2021/06/16 07:55:52;;;;;;;11.27;7.75;;;21.20;65.60;;;;;;5044212;28;20087;-56
2021/06/16 07:58:18;;;;;;;13.10;7.13;;;21.30;65.30;;;;;;5040425;28;20136;-54
2021/06/16 08:00:47;;;;;;;11.60;7.43;;;21.30;65.10;;;;;;5052953;28;20044;-54
2021/06/16 08:03:16;;;;;;;12.00;7.45;;;21.30;64.90;;;;;;5052523;28;20037;-57
2021/06/16 08:05:43;;;;;;;16.35;7.38;;;21.40;64.40;;;;;;5040623;28;20135;-55
2021/06/16 08:08:09;;;;;;;12.02;7.72;;;21.50;65.50;;;;;;5046399;28;20038;-54
2021/06/16 08:10:35;;;;;;;9.57;6.50;;;21.60;65.80;;;;;;5046954;28;20041;-55
2021/06/16 08:13:01;;;;;;;12.95;6.75;;;21.80;64.50;;;;;;5045545;28;20612;-55
2021/06/16 08:15:27;;;;;;;12.25;6.35;;;21.90;64.40;;;;;;5049412;28;20155;-55
2021/06/16 08:17:53;;;;;;;11.75;6.10;;;22.00;64.80;;;;;;5049989;28;20094;-53
2021/06/16 08:20:21;;;;;;;8.95;5.68;;;22.20;63.60;;;;;;5052302;28;20140;-56
2021/06/16 08:22:46;;;;;;;9.52;5.80;;;22.30;62.80;;;;;;5066456;28;20075;-52
2021/06/16 08:25:13;;;;;;;8.27;5.15;;;22.50;61.00;;;;;;5050871;28;20075;-56
2021/06/16 08:27:40;;;;;;;9.38;5.20;;;22.60;60.20;;;;;;5050872;28;20055;-55
2021/06/16 08:30:07;;;;;;;9.98;5.47;;;22.70;58.40;;;;;;5050211;28;20060;-53
2021/06/16 08:32:33;;;;;;;6.60;4.15;;;22.70;57.70;;;;;;5046697;28;20052;-54
2021/06/16 08:34:59;;;;;;;6.40;4.28;;;22.70;57.40;;;;;;5054509;28;20052;-54
2021/06/16 08:37:25;;;;;;;8.63;4.07;;;22.80;58.70;;;;;;5051457;28;20048;-54
2021/06/16 08:39:51;;;;;;;8.63;4.80;;;22.90;58.60;;;;;;5048256;28;20440;-54
2021/06/16 08:42:19;;;;;;;8.38;3.90;;;23.00;57.60;;;;;;5058718;28;20044;-55
2021/06/16 08:44:45;;;;;;;7.68;3.80;;;23.00;55.30;;;;;;5066702;28;20067;-52
2021/06/16 08:47:11;;;;;;;11.18;4.00;;;23.00;53.60;;;;;;5069292;28;20063;-52
2021/06/16 08:49:37;;;;;;;9.38;4.45;;;22.90;54.60;;;;;;5062493;28;20060;-58
2021/06/16 08:52:03;;;;;;;8.88;4.68;;;23.00;55.70;;;;;;5062049;28;20036;-57
2021/06/16 08:54:30;;;;;;;11.98;4.50;;;23.10;54.50;;;;;;5061369;28;20126;-58
2021/06/16 08:56:56;;;;;;;10.35;4.00;;;23.10;55.90;;;;;;5051981;28;20044;-59
2021/06/16 08:59:21;;;;;;;8.77;4.25;;;23.10;55.60;;;;;;5057521;28;20032;-59
2021/06/16 09:01:47;;;;;;;10.30;4.22;;;23.10;54.70;;;;;;5065189;28;20091;-58
2021/06/16 09:04:47;;;;;;;10.68;4.90;;;23.20;52.60;;;;;;5052205;28;20053;-57
2021/06/16 09:07:16;;;;;;;9.45;4.45;;;23.20;55.40;;;;;;5059702;28;20543;-58
2021/06/16 09:09:43;;;;;;;7.65;4.90;;;23.30;53.50;;;;;;5060613;28;20033;-58
2021/06/16 09:12:12;;;;;;;8.95;4.70;;;23.40;52.60;;;;;;5035730;28;20045;-58
2021/06/16 09:14:52;;;;;;;10.43;4.32;;;23.50;53.50;;;;;;5046664;28;20041;-58
2021/06/16 09:17:27;;;;;;;7.22;3.80;;;23.50;51.60;;;;;;5055731;28;20039;-58
2021/06/16 09:19:56;;;;;;;8.23;3.40;;;23.50;51.50;;;;;;5053754;28;20147;-58
2021/06/16 09:22:37;;;;;;;9.10;3.78;;;23.60;50.90;;;;;;5051512;28;20063;-59
2021/06/16 09:25:08;;;;;;;8.27;3.60;;;23.70;47.60;;;;;;5051544;28;20045;-59
2021/06/16 09:27:50;;;;;;;5.28;3.38;;;23.80;48.50;;;;;;5029437;28;20087;-58
2021/06/16 09:30:19;;;;;;;6.05;3.78;;;23.80;48.70;;;;;;5066535;28;20051;-58
2021/06/16 09:32:46;;;;;;;5.72;2.85;;;23.80;49.20;;;;;;5049814;28;20104;-58
2021/06/16 09:35:18;;;;;;;5.45;2.80;;;23.80;48.50;;;;;;5053026;28;20521;-58
2021/06/16 09:37:43;;;;;;;;;;;23.90;47.30;;;;;;5059371;28;20096;-58
2021/06/16 09:40:10;;;;;;;9.40;3.30;;;24.00;48.80;;;;;;5055610;28;20373;-57
2021/06/16 09:42:36;;;;;;;8.60;3.40;;;24.10;47.80;;;;;;5020995;28;20121;-58
2021/06/16 09:45:03;;;;;;;6.45;3.50;;;24.20;48.70;;;;;;5059627;28;20115;-58
2021/06/16 09:47:30;;;;;;;7.57;3.45;;;24.30;48.80;;;;;;5038411;28;20043;-58
2021/06/16 09:50:00;;;;;;;6.72;3.13;;;24.30;47.90;;;;;;5054600;28;20044;-59
2021/06/16 09:52:43;;;;;;;7.20;2.85;;;24.40;46.50;;;;;;5043979;28;20501;-57
2021/06/16 09:55:30;;;;;;;6.38;3.25;;;24.40;46.80;;;;;;5055915;28;20037;-58
2021/06/16 09:58:07;;;;;;;7.03;2.72;;;24.50;46.00;;;;;;5057646;28;20044;-58
2021/06/16 10:00:33;;;;;;;7.85;2.90;;;24.50;47.10;;;;;;5052611;28;20059;-58
2021/06/16 10:03:19;;;;;;;6.72;3.03;;;24.60;45.20;;;;;;5057089;28;20116;-58
2021/06/16 10:06:09;;;;;;;4.75;2.70;;;24.70;45.80;;;;;;5046457;28;20126;-55
2021/06/16 10:08:43;;;;;;;8.30;3.03;;;24.80;46.40;;;;;;5051358;28;20045;-53
2021/06/16 10:11:11;;;;;;;9.00;3.03;;;25.00;47.30;;;;;;5049176;28;20048;-55
2021/06/16 10:13:41;;;;;;;8.75;2.92;;;25.10;46.50;;;;;;5049964;28;20049;-54
2021/06/16 10:16:07;;;;;;;8.30;3.25;;;25.20;47.00;;;;;;5051858;28;20056;-54
2021/06/16 10:18:38;;;;;;;12.63;3.55;;;25.30;46.50;;;;;;5053933;28;20486;-55
2021/06/16 10:21:04;;;;;;;7.10;3.85;;;25.20;44.40;;;;;;5051822;28;20045;-55
2021/06/16 10:23:30;;;;;;;4.97;2.70;;;25.20;45.90;;;;;;5053547;28;20382;-55
2021/06/16 10:26:03;;;;;;;5.60;2.95;;;25.20;46.60;;;;;;5050985;28;20044;-55
2021/06/16 10:28:35;;;;;;;6.22;2.80;;;25.30;47.00;;;;;;5065850;28;20045;-54
2021/06/16 10:31:02;;;;;;;6.57;3.45;;;25.30;46.90;;;;;;5041637;28;20067;-55
2021/06/16 10:33:42;;;;;;;5.10;3.30;;;25.40;46.40;;;;;;5051026;28;20053;-55
2021/06/16 10:36:21;;;;;;;6.88;2.83;;;25.40;46.60;;;;;;5045832;28;20047;-55
2021/06/16 10:38:56;;;;;;;6.13;3.30;;;25.40;45.40;;;;;;5052941;28;20116;-55
2021/06/16 10:41:46;;;;;;;7.28;3.63;;;25.50;46.40;;;;;;5048187;28;20055;-55
2021/06/16 10:44:19;;;;;;;6.05;2.67;;;25.60;46.00;;;;;;5048482;28;20056;-55
2021/06/16 10:47:00;;;;;;;6.63;3.33;;;25.80;46.70;;;;;;5053967;28;20356;-56
2021/06/16 10:49:49;;;;;;;6.75;3.10;;;25.90;43.60;;;;;;5059949;28;20064;-55
2021/06/16 10:52:21;;;;;;;6.32;2.70;;;25.80;43.40;;;;;;5057258;28;20043;-56
2021/06/16 10:54:56;;;;;;;7.55;2.90;;;25.60;44.20;;;;;;5038441;28;20045;-54
2021/06/16 10:57:23;;;;;;;5.05;2.30;;;25.60;43.70;;;;;;5035928;28;20062;-56
2021/06/16 10:59:50;;;;;;;5.43;2.80;;;25.50;44.90;;;;;;5034612;28;20111;-54
2021/06/16 11:02:18;;;;;;;5.82;2.65;;;25.70;44.60;;;;;;5044933;28;20090;-54
2021/06/16 11:04:47;;;;;;;8.93;2.90;;;25.80;44.70;;;;;;5045480;28;20048;-55
2021/06/16 11:07:38;;;;;;;7.90;3.22;;;25.90;44.20;;;;;;5037144;28;20071;-55
2021/06/16 11:10:07;;;;;;;8.68;2.90;;;25.90;44.40;;;;;;5056027;28;20044;-54
2021/06/16 11:12:41;;;;;;;5.80;2.80;;;25.80;44.50;;;;;;5052688;28;20136;-55
2021/06/16 11:15:24;;;;;;;5.22;2.55;;;25.80;45.30;;;;;;5057542;28;20052;-55
2021/06/16 11:17:54;;;;;;;6.68;2.35;;;25.90;44.90;;;;;;5039595;28;20132;-54
2021/06/16 11:20:22;;;;;;;8.63;2.45;;;26.00;45.00;;;;;;5051905;28;20029;-55
2021/06/16 11:22:51;;;;;;;7.82;2.78;;;26.10;45.30;;;;;;5053076;28;20037;-55
2021/06/16 11:25:18;;;;;;;8.50;2.90;;;26.00;43.80;;;;;;5036476;28;20052;-55
2021/06/16 11:28:07;;;;;;;7.45;3.00;;;26.10;43.40;;;;;;5043215;28;20051;-55
2021/06/16 11:30:41;;;;;;;4.75;2.85;;;26.10;44.00;;;;;;5051070;28;20037;-55
2021/06/16 11:33:16;;;;;;;7.53;2.78;;;26.10;46.00;;;;;;5050670;28;20041;-56
2021/06/16 11:35:49;;;;;;;5.75;2.60;;;26.20;45.70;;;;;;5051749;28;20459;-56
2021/06/16 11:38:20;;;;;;;6.85;3.20;;;26.20;44.90;;;;;;5058711;28;20037;-55
2021/06/16 11:40:59;;;;;;;11.07;2.83;;;26.20;44.60;;;;;;5051288;28;20068;-56
2021/06/16 11:43:28;;;;;;;7.65;2.70;;;26.30;44.70;;;;;;5051991;28;20375;-55
2021/06/16 11:45:54;;;;;;;6.10;2.80;;;26.40;44.00;;;;;;5053709;28;20075;-56
2021/06/16 11:48:19;;;;;;;7.05;2.85;;;26.40;45.70;;;;;;5048712;28;20432;-55
2021/06/16 11:50:45;;;;;;;6.90;3.35;;;26.50;46.10;;;;;;5053165;28;20451;-55
2021/06/16 11:53:12;;;;;;;6.38;3.00;;;26.60;44.90;;;;;;5064437;28;20084;-54
2021/06/16 11:55:45;;;;;;;5.43;2.80;;;26.60;43.90;;;;;;5033689;28;20128;-55
2021/06/16 11:58:34;;;;;;;8.70;3.10;;;26.60;45.00;;;;;;5064179;28;20052;-55
2021/06/16 12:01:11;;;;;;;7.63;2.90;;;26.60;45.30;;;;;;5039667;28;20073;-56
2021/06/16 12:03:42;;;;;;;8.25;3.42;;;26.70;45.80;;;;;;5049085;28;20409;-55
2021/06/16 12:06:13;;;;;;;8.90;3.33;;;26.80;45.20;;;;;;5049780;28;20048;-55
2021/06/16 12:08:43;;;;;;;;;;;26.90;44.70;;;;;;5055003;28;20040;-55
2021/06/16 12:11:23;;;;;;;11.75;3.50;;;26.80;45.00;;;;;;5040788;28;20007;-55
2021/06/16 12:13:56;;;;;;;9.23;3.10;;;26.80;45.80;;;;;;5051368;28;20040;-55
2021/06/16 12:16:26;;;;;;;9.73;3.45;;;26.80;45.30;;;;;;5040136;28;20442;-55
2021/06/16 12:18:52;;;;;;;8.50;3.63;;;26.80;45.50;;;;;;5048786;28;20107;-52
2021/06/16 12:21:19;;;;;;;5.95;2.90;;;26.80;45.60;;;;;;5051428;28;20079;-54
2021/06/16 12:23:46;;;;;;;6.68;2.97;;;26.90;45.70;;;;;;5068111;28;20041;-50
2021/06/16 12:26:21;;;;;;;10.07;3.83;;;26.90;46.10;;;;;;5051694;28;20045;-52
2021/06/16 12:28:50;;;;;;;10.98;3.28;;;27.00;45.50;;;;;;5052273;28;20040;-53
2021/06/16 12:31:31;;;;;;;4.82;2.80;;;27.10;46.40;;;;;;5050568;28;20049;-52
2021/06/16 12:36:27;;;;;;;6.00;2.97;;;27.20;45.10;;;;;;5052157;28;20069;-53
2021/06/16 12:39:16;;;;;;;6.72;3.00;;;27.20;46.40;;;;;;5046897;28;20053;-53
2021/06/16 12:41:50;;;;;;;6.70;3.05;;;27.20;46.50;;;;;;5046363;28;20540;-53
2021/06/16 12:44:27;;;;;;;9.63;3.55;;;27.40;46.20;;;;;;5031937;28;20497;-52
2021/06/16 12:46:57;;;;;;;8.32;3.33;;;27.40;46.00;;;;;;5052465;28;20045;-53
2021/06/16 12:49:25;;;;;;;6.05;3.00;;;27.40;46.10;;;;;;5051906;28;20045;-53
2021/06/16 12:51:56;;;;;;;10.00;3.60;;;27.50;46.70;;;;;;5052641;28;20120;-54